createdAt,value
2022-09-04T00:00:52.172Z,1.35
2022-09-04T00:07:06.916Z,1.98
2022-09-04T00:13:17.807Z,1.42
2022-09-04T00:19:30.216Z,1.15
2022-09-04T00:25:42.652Z,2.27
2022-09-04T00:31:55.018Z,1.35
2022-09-04T00:38:07.789Z,1.47
2022-09-04T00:44:46.973Z,1.87
2022-09-04T00:51:23.587Z,1.27
2022-09-04T01:04:29.108Z,1.37
2022-09-04T01:10:46.187Z,1.87
2022-09-04T01:16:57.774Z,1.85
2022-09-04T01:23:37.484Z,1.80
2022-09-04T01:29:52.487Z,2.02
2022-09-04T01:36:05.074Z,2.30
2022-09-04T01:42:17.935Z,2.02
2022-09-04T01:48:29.871Z,3.10
2022-09-04T01:54:59.363Z,2.35
2022-09-04T02:01:12.065Z,3.33
2022-09-04T02:07:28.021Z,1.85
2022-09-04T02:13:46.026Z,2.17
2022-09-04T02:20:09.858Z,2.35
2022-09-04T02:26:19.515Z,2.22
2022-09-04T02:32:33.673Z,2.27
2022-09-04T02:38:47.051Z,2.30
2022-09-04T02:45:02.225Z,2.37
2022-09-04T02:51:17.243Z,2.22
2022-09-04T02:57:33.035Z,2.20
2022-09-04T03:03:48.418Z,2.12
2022-09-04T03:09:59.865Z,2.30
2022-09-04T03:16:09.541Z,2.20
2022-09-04T03:22:23.246Z,1.82
2022-09-04T03:28:37.404Z,3.20
2022-09-04T03:34:56.008Z,2.27
2022-09-04T03:41:09.778Z,1.57
2022-09-04T03:47:25.592Z,1.72
2022-09-04T03:53:37.978Z,2.05
2022-09-04T03:59:58.226Z,1.87
2022-09-04T04:06:18.008Z,1.50
2022-09-04T04:12:34.671Z,1.72
2022-09-04T04:19:11.394Z,1.98
2022-09-04T04:26:10.014Z,1.60
2022-09-04T04:32:29.807Z,1.80
2022-09-04T04:39:00.145Z,2.02
2022-09-04T04:45:37.535Z,1.37
2022-09-04T04:52:14.546Z,1.87
2022-09-04T04:58:55.697Z,1.42
2022-09-04T05:05:05.714Z,1.80
2022-09-04T05:11:20.956Z,1.82
2022-09-04T05:17:34.443Z,1.75
2022-09-04T05:23:45.009Z,1.80
2022-09-04T05:29:59.379Z,1.57
2022-09-04T05:36:14.540Z,1.25
2022-09-04T05:42:50.541Z,1.90
2022-09-04T05:49:03.084Z,1.10
2022-09-04T06:02:28.647Z,1.43
2022-09-04T06:08:58.163Z,1.00
2022-09-04T06:15:17.922Z,1.12
2022-09-04T06:21:54.102Z,1.65
2022-09-04T06:28:18.517Z,1.60
2022-09-04T06:34:33.266Z,1.52
2022-09-04T06:40:48.906Z,0.90
2022-09-04T06:47:02.092Z,1.70
2022-09-04T06:53:27.222Z,1.35
2022-09-04T06:59:59.347Z,1.30
2022-09-04T07:06:13.564Z,1.17
2022-09-04T07:12:48.239Z,1.72
2022-09-04T07:19:17.610Z,1.65
2022-09-04T07:25:28.680Z,1.23
2022-09-04T07:31:40.028Z,1.55
2022-09-04T07:37:52.011Z,1.42
2022-09-04T07:44:04.718Z,1.25
2022-09-04T07:50:15.351Z,1.35
2022-09-04T07:56:29.060Z,1.77
2022-09-04T08:02:46.228Z,1.37
2022-09-04T08:09:27.843Z,1.25
2022-09-04T08:15:45.674Z,1.27
2022-09-04T08:21:55.494Z,1.27
2022-09-04T08:28:42.981Z,1.98
2022-09-04T08:41:50.747Z,0.80
2022-09-04T08:48:41.590Z,2.55
2022-09-04T08:55:18.069Z,1.12
2022-09-04T09:01:57.825Z,1.50
2022-09-04T09:08:34.811Z,1.50
2022-09-04T09:21:30.524Z,1.50
2022-09-04T09:28:17.061Z,1.20
2022-09-04T09:35:01.224Z,1.55
2022-09-04T09:41:43.664Z,1.30
2022-09-04T09:48:32.767Z,1.42
2022-09-04T09:55:23.016Z,1.40
2022-09-04T10:02:10.936Z,1.60
2022-09-04T10:08:45.033Z,1.77
2022-09-04T10:22:34.558Z,1.40
2022-09-04T10:29:16.060Z,1.20
2022-09-04T10:35:30.307Z,1.47
2022-09-04T10:41:58.254Z,1.17
2022-09-04T10:48:28.736Z,1.62
2022-09-04T10:55:21.319Z,5.35
2022-09-04T11:02:16.023Z,1.15
2022-09-04T11:08:40.929Z,1.70
2022-09-04T11:15:14.878Z,2.50
2022-09-04T11:22:38.131Z,1.12
2022-09-04T11:29:22.316Z,0.95
2022-09-04T11:36:19.586Z,1.60
2022-09-04T11:49:18.599Z,1.13
2022-09-04T11:55:52.656Z,1.65
2022-09-04T12:02:30.966Z,1.30
2022-09-04T12:08:59.782Z,1.02
2022-09-04T12:22:17.013Z,1.00
2022-09-04T12:28:44.622Z,0.90
2022-09-04T12:35:31.136Z,1.12
2022-09-04T12:41:38.699Z,1.35
2022-09-04T12:47:57.280Z,0.90
2022-09-04T12:54:13.265Z,1.10
2022-09-04T13:00:21.703Z,1.12
2022-09-04T13:06:33.960Z,1.65
2022-09-04T13:12:46.090Z,2.33
2022-09-04T13:19:00.972Z,21.00
2022-09-04T13:25:12.409Z,17.87
2022-09-04T13:31:45.162Z,17.15
2022-09-04T13:38:19.645Z,10.93
2022-09-04T13:44:54.567Z,8.68
2022-09-04T13:51:13.349Z,6.67
2022-09-04T13:57:21.979Z,7.47
2022-09-04T14:03:40.456Z,9.30
2022-09-04T14:09:54.806Z,4.95
2022-09-04T14:16:12.585Z,4.55
2022-09-04T14:22:33.559Z,3.90
2022-09-04T14:28:45.147Z,4.58
2022-09-04T14:34:59.348Z,5.42
2022-09-04T14:41:12.512Z,5.08
2022-09-04T14:47:27.876Z,2.80
2022-09-04T14:53:39.277Z,2.52
2022-09-04T14:59:52.381Z,2.45
2022-09-04T15:06:02.587Z,2.58
2022-09-04T15:12:25.285Z,2.60
2022-09-04T15:18:39.149Z,2.10
2022-09-04T15:24:57.315Z,3.35
2022-09-04T15:31:16.475Z,2.92
2022-09-04T15:37:28.424Z,5.72
2022-09-04T15:43:40.956Z,2.83
2022-09-04T15:49:53.660Z,2.87
2022-09-04T15:56:10.101Z,5.25
2022-09-04T16:08:34.943Z,7.15
2022-09-04T16:14:46.186Z,8.90
2022-09-04T16:20:58.124Z,10.38
2022-09-04T16:27:11.007Z,10.08
2022-09-04T16:33:29.314Z,6.37
2022-09-04T16:39:41.524Z,4.78
2022-09-04T16:45:52.263Z,8.35
2022-09-04T16:52:08.070Z,6.33
2022-09-04T16:58:33.908Z,5.37
2022-09-04T17:04:43.312Z,6.65
2022-09-04T17:10:52.809Z,1.82
2022-09-04T17:17:30.169Z,2.58
2022-09-04T17:29:37.337Z,6.92
2022-09-04T17:40:39.726Z,3.15
2022-09-04T17:42:08.782Z,3.95
2022-09-04T17:48:24.327Z,2.35
2022-09-04T17:54:34.507Z,9.55
2022-09-04T18:00:52.914Z,4.20
2022-09-04T18:07:21.364Z,1.82
2022-09-04T18:13:36.903Z,2.22
2022-09-04T18:19:38.312Z,4.20
2022-09-04T18:25:51.423Z,2.55
2022-09-04T18:37:11.743Z,3.47
2022-09-04T18:38:23.693Z,2.62
2022-09-04T18:50:28.503Z,4.12
2022-09-04T18:51:12.638Z,1.87
2022-09-04T18:57:10.210Z,1.22
2022-09-04T19:03:24.250Z,1.20
2022-09-04T19:09:37.272Z,2.45
2022-09-04T19:15:56.706Z,1.45
2022-09-04T19:22:11.308Z,1.37
2022-09-04T19:28:27.419Z,1.32
2022-09-04T19:34:40.527Z,0.98
2022-09-04T19:46:00.510Z,4.62
2022-09-04T19:53:58.638Z,1.67
2022-09-04T20:00:40.168Z,1.35
2022-09-04T20:06:35.283Z,1.62
2022-09-04T20:18:57.551Z,1.92
2022-09-04T20:25:34.846Z,2.87
2022-09-04T20:31:53.079Z,1.40
2022-09-04T20:38:05.509Z,3.92
2022-09-04T20:44:23.490Z,1.35
2022-09-04T21:01:05.423Z,1.45
2022-09-04T21:03:28.224Z,1.95
2022-09-04T21:09:32.839Z,1.47
2022-09-04T21:15:46.822Z,1.82
2022-09-04T21:22:32.903Z,2.60
2022-09-04T21:29:11.513Z,1.20
2022-09-04T21:35:30.387Z,0.78
2022-09-04T21:41:47.402Z,1.40
2022-09-04T21:48:33.259Z,1.57
2022-09-04T21:57:13.525Z,1.37
2022-09-04T22:02:48.591Z,1.77
2022-09-04T22:10:31.046Z,2.17
2022-09-04T22:14:10.579Z,1.52
2022-09-04T22:20:42.301Z,1.20
2022-09-04T22:27:56.640Z,1.17
2022-09-04T22:34:25.891Z,1.77
2022-09-04T22:40:44.528Z,1.80
2022-09-04T22:47:27.414Z,1.35
2022-09-04T22:54:24.943Z,0.80
2022-09-04T23:00:37.465Z,1.42
2022-09-04T23:11:25.270Z,1.27
2022-09-04T23:14:06.802Z,0.75
2022-09-04T23:27:28.636Z,2.20
2022-09-04T23:33:54.254Z,0.80
2022-09-04T23:47:10.175Z,1.60
2022-09-04T23:53:26.623Z,1.37
2022-09-04T23:59:39.907Z,0.88
